Time;durP1;ratioP1;P1;durP2;ratioP2;P2;SDS_P1;SDS_P2;PMS_P1;PMS_P2;Temp;Humidity;BMP_temperature;BMP_pressure;BME280_temperature;BME280_humidity;BME280_pressure;Samples;Min_cycle;Max_cycle;Signal;HPM_P1;HPM_P2
2022/04/16 00:01:49;;;;;;;1.50;1.40;;;12.60;91.10;;;;;;4994092;28;20041;-72
2022/04/16 00:04:15;;;;;;;2.03;1.48;;;12.70;91.00;;;;;;4989305;28;20105;-72
2022/04/16 00:06:40;;;;;;;2.33;1.50;;;12.70;90.90;;;;;;4989997;28;20284;-72
2022/04/16 00:09:06;;;;;;;1.83;1.33;;;12.60;91.10;;;;;;4992629;28;20065;-72
2022/04/16 00:11:32;;;;;;;2.28;1.75;;;12.50;91.00;;;;;;4991349;28;20166;-72
2022/04/16 00:13:58;;;;;;;4.70;2.85;;;12.50;91.00;;;;;;4975930;28;20494;-70
2022/04/16 00:16:24;;;;;;;2.58;2.00;;;12.50;91.10;;;;;;4987149;28;20062;-69
2022/04/16 00:18:50;;;;;;;2.45;1.80;;;12.40;91.20;;;;;;4987001;28;20095;-70
2022/04/16 00:21:17;;;;;;;2.13;1.67;;;12.20;91.20;;;;;;4983758;28;20541;-70
2022/04/16 00:23:43;;;;;;;1.95;1.45;;;12.20;92.50;;;;;;4993306;28;20132;-69
2022/04/16 00:26:12;;;;;;;3.55;1.60;;;12.20;92.10;;;;;;4984660;28;20041;-71
2022/04/16 00:28:38;;;;;;;1.67;1.58;;;12.10;92.40;;;;;;4986064;28;20034;-69
2022/04/16 00:31:04;;;;;;;1.65;1.55;;;11.70;92.30;;;;;;4985262;28;20057;-70
2022/04/16 00:33:31;;;;;;;2.33;1.75;;;11.50;93.00;;;;;;4992937;28;20069;-72
2022/04/16 00:35:56;;;;;;;3.35;2.13;;;11.30;93.30;;;;;;4996246;28;20058;-72
2022/04/16 00:38:22;;;;;;;1.60;1.35;;;11.20;93.80;;;;;;4992608;28;20074;-71
2022/04/16 00:40:47;;;;;;;1.83;1.60;;;11.30;93.70;;;;;;4989336;28;20068;-71
2022/04/16 00:43:24;;;;;;;2.58;1.73;;;11.40;93.70;;;;;;4991811;28;20052;-71
2022/04/16 00:45:50;;;;;;;2.15;1.90;;;11.40;93.70;;;;;;4995946;28;20033;-72
2022/04/16 00:48:16;;;;;;;1.73;1.63;;;11.40;93.80;;;;;;4991436;28;20038;-71
2022/04/16 00:50:43;;;;;;;2.42;2.22;;;11.40;93.90;;;;;;4991377;28;24003;-71
2022/04/16 00:53:12;;;;;;;1.60;1.50;;;11.40;94.20;;;;;;4997053;28;20449;-71
2022/04/16 00:55:38;;;;;;;1.90;1.73;;;11.40;94.00;;;;;;4998139;28;21670;-71
2022/04/16 00:58:04;;;;;;;1.40;1.30;;;11.50;93.80;;;;;;4995012;28;20042;-71
2022/04/16 01:00:30;;;;;;;1.90;1.63;;;11.40;93.60;;;;;;4984316;28;20124;-71
2022/04/16 01:02:56;;;;;;;1.70;1.60;;;11.30;93.60;;;;;;4987625;28;20568;-71
2022/04/16 01:05:22;;;;;;;1.80;1.42;;;11.40;93.80;;;;;;4987306;28;20038;-71
2022/04/16 01:07:57;;;;;;;2.85;1.83;;;11.40;93.80;;;;;;4985664;28;20129;-71
2022/04/16 01:10:26;;;;;;;2.78;1.77;;;11.40;93.70;;;;;;5007404;28;20054;-71
2022/04/16 01:13:02;;;;;;;1.70;1.60;;;11.30;93.90;;;;;;4995335;28;20085;-69
2022/04/16 01:15:31;;;;;;;2.03;1.83;;;11.20;94.00;;;;;;4988304;28;20864;-70
2022/04/16 01:17:59;;;;;;;1.92;1.80;;;11.20;94.10;;;;;;4989598;28;20049;-69
2022/04/16 01:20:25;;;;;;;2.60;2.40;;;11.30;94.00;;;;;;4990771;28;20038;-70
2022/04/16 01:22:51;;;;;;;2.70;2.50;;;11.40;93.80;;;;;;4984834;28;20042;-69
2022/04/16 01:25:18;;;;;;;3.85;3.42;;;11.50;93.60;;;;;;4997077;28;20046;-69
2022/04/16 01:27:45;;;;;;;3.75;3.38;;;11.60;93.50;;;;;;4987568;28;20046;-69
2022/04/16 01:30:18;;;;;;;4.10;3.70;;;11.60;93.60;;;;;;4990180;28;20053;-69
2022/04/16 01:32:44;;;;;;;4.35;3.70;;;11.60;93.60;;;;;;4991407;28;20050;-71
2022/04/16 01:35:11;;;;;;;5.18;4.40;;;11.50;93.80;;;;;;5001197;28;20074;-71
2022/04/16 01:37:37;;;;;;;4.75;4.30;;;11.50;94.00;;;;;;4992157;28;20042;-72
2022/04/16 01:40:08;;;;;;;4.97;4.53;;;11.50;94.60;;;;;;4976462;28;20652;-71
2022/04/16 01:42:35;;;;;;;4.82;4.15;;;11.60;94.30;;;;;;4988281;28;20046;-71
2022/04/16 01:45:11;;;;;;;5.68;4.20;;;11.60;94.20;;;;;;4995809;28;20091;-71
2022/04/16 01:47:38;;;;;;;4.47;4.07;;;11.70;94.20;;;;;;4989493;28;20054;-71
2022/04/16 01:50:09;;;;;;;5.03;4.55;;;11.70;94.10;;;;;;4992796;28;20034;-71
2022/04/16 01:52:38;;;;;;;4.60;4.15;;;11.70;94.30;;;;;;4990935;28;20233;-69
2022/04/16 01:55:05;;;;;;;4.95;4.45;;;11.70;94.20;;;;;;4993157;28;20054;-69
2022/04/16 01:57:31;;;;;;;4.82;4.22;;;11.70;94.30;;;;;;4986029;28;20137;-69
2022/04/16 01:59:56;;;;;;;5.32;4.70;;;11.70;94.20;;;;;;5000854;28;20459;-69
2022/04/16 02:02:22;;;;;;;5.45;4.95;;;11.80;94.50;;;;;;4986800;28;20515;-68
2022/04/16 02:04:48;;;;;;;6.50;5.40;;;11.70;94.60;;;;;;4996667;28;20121;-69
2022/04/16 02:07:14;;;;;;;8.65;6.28;;;11.60;94.70;;;;;;4986851;28;20030;-69
2022/04/16 02:09:40;;;;;;;6.55;5.95;;;11.60;94.60;;;;;;4992388;28;20066;-69
2022/04/16 02:12:07;;;;;;;6.28;5.78;;;11.50;94.90;;;;;;4981749;28;20069;-69
2022/04/16 02:14:33;;;;;;;6.22;5.63;;;11.40;95.00;;;;;;4986065;28;20581;-68
2022/04/16 02:16:59;;;;;;;6.45;5.85;;;11.30;95.60;;;;;;4991271;28;20034;-68
2022/04/16 02:19:26;;;;;;;8.32;7.13;;;11.10;95.70;;;;;;4981901;28;20628;-69
2022/04/16 02:21:52;;;;;;;7.22;6.20;;;11.10;96.10;;;;;;4990279;28;20054;-68
2022/04/16 02:24:18;;;;;;;7.65;6.65;;;11.00;96.20;;;;;;4994481;28;20085;-68
2022/04/16 02:26:44;;;;;;;7.97;7.18;;;11.00;96.50;;;;;;5000246;28;20052;-71
2022/04/16 02:29:10;;;;;;;7.78;6.78;;;11.00;96.50;;;;;;4989783;28;20133;-71
2022/04/16 02:31:40;;;;;;;7.95;7.15;;;10.90;96.50;;;;;;4986520;28;20676;-72
2022/04/16 02:34:11;;;;;;;7.70;6.90;;;10.90;96.60;;;;;;4989154;28;20451;-71
2022/04/16 02:36:37;;;;;;;8.43;7.47;;;10.90;96.50;;;;;;4991842;28;20037;-71
2022/04/16 02:39:04;;;;;;;7.70;7.00;;;10.90;96.60;;;;;;4993391;28;20662;-73
2022/04/16 02:41:29;;;;;;;7.35;6.65;;;10.80;96.40;;;;;;4993573;28;20072;-71
2022/04/16 02:43:55;;;;;;;8.07;7.28;;;10.90;96.50;;;;;;4995578;28;20510;-71
2022/04/16 02:49:09;;;;;;;7.57;6.88;;;10.90;96.20;;;;;;4985344;28;20096;-71
2022/04/16 02:51:34;;;;;;;7.72;6.93;;;10.90;96.30;;;;;;4985266;28;20573;-72
2022/04/16 02:54:00;;;;;;;7.60;6.90;;;10.90;96.20;;;;;;4987406;28;20049;-72
2022/04/16 02:56:26;;;;;;;7.82;6.85;;;10.90;96.10;;;;;;4987922;28;20058;-72
2022/04/16 02:58:51;;;;;;;7.85;7.05;;;10.90;96.10;;;;;;4975985;28;20050;-72
2022/04/16 03:01:17;;;;;;;7.97;7.03;;;10.90;96.30;;;;;;4994170;28;20038;-71
2022/04/16 03:03:43;;;;;;;7.90;6.38;;;10.90;96.20;;;;;;4999018;28;20081;-72
2022/04/16 03:06:09;;;;;;;8.13;7.03;;;10.80;96.30;;;;;;4983662;28;20679;-72
2022/04/16 03:08:35;;;;;;;7.65;6.80;;;10.80;96.10;;;;;;4990119;28;20054;-71
2022/04/16 03:11:01;;;;;;;8.80;6.43;;;10.80;96.10;;;;;;4994342;28;20317;-71
2022/04/16 03:13:27;;;;;;;8.18;6.28;;;10.80;95.90;;;;;;4996569;28;20034;-71
2022/04/16 03:18:37;;;;;;;6.68;5.93;;;10.80;96.00;;;;;;4992450;28;20685;-71
2022/04/16 03:21:03;;;;;;;7.05;6.18;;;10.70;96.20;;;;;;4990337;28;20053;-72
2022/04/16 03:23:29;;;;;;;6.65;6.05;;;10.70;96.30;;;;;;4985270;28;20046;-71
2022/04/16 03:25:58;;;;;;;6.57;5.80;;;10.70;96.20;;;;;;4981461;28;20034;-71
2022/04/16 03:28:24;;;;;;;6.78;6.10;;;10.70;96.20;;;;;;4992241;28;20045;-71
2022/04/16 03:30:50;;;;;;;6.38;5.70;;;10.70;96.30;;;;;;4988779;28;20042;-71
2022/04/16 03:33:16;;;;;;;6.13;5.53;;;10.60;96.10;;;;;;4996416;28;21419;-71
2022/04/16 03:35:42;;;;;;;5.95;5.38;;;10.60;96.30;;;;;;4989086;28;20050;-71
2022/04/16 03:38:07;;;;;;;6.80;5.60;;;10.60;96.20;;;;;;4999467;28;20142;-71
2022/04/16 03:40:33;;;;;;;7.78;5.55;;;10.60;95.80;;;;;;4987190;28;20490;-71
2022/04/16 03:43:00;;;;;;;5.55;5.00;;;10.50;96.00;;;;;;4983713;28;20042;-71
2022/04/16 03:45:28;;;;;;;6.28;5.68;;;10.50;96.20;;;;;;4992397;28;20132;-71
2022/04/16 03:47:55;;;;;;;5.90;5.30;;;10.50;96.00;;;;;;4993449;28;20037;-71
2022/04/16 03:50:22;;;;;;;6.30;5.68;;;10.50;96.30;;;;;;4986955;28;20661;-72
2022/04/16 03:52:50;;;;;;;5.80;5.22;;;10.50;96.20;;;;;;4997691;28;20129;-72
2022/04/16 04:00:48;;;;;;;6.35;5.45;;;10.60;96.00;;;;;;4984671;28;20338;-71
2022/04/16 04:03:14;;;;;;;5.90;5.30;;;10.60;95.80;;;;;;4988883;28;20145;-71
2022/04/16 04:05:41;;;;;;;6.63;5.32;;;10.70;95.60;;;;;;4963040;28;20453;-72
2022/04/16 04:08:09;;;;;;;8.98;5.80;;;10.70;95.60;;;;;;4963138;28;20031;-71
2022/04/16 04:10:35;;;;;;;4.63;4.22;;;10.60;95.50;;;;;;4974719;28;20124;-71
2022/04/16 04:13:02;;;;;;;5.97;5.38;;;10.60;95.50;;;;;;4976104;28;20042;-72
2022/04/16 04:15:29;;;;;;;5.75;4.85;;;10.60;95.60;;;;;;4969394;28;20727;-71
2022/04/16 04:17:56;;;;;;;5.97;5.38;;;10.60;95.60;;;;;;4970609;28;20108;-71
2022/04/16 04:20:21;;;;;;;5.40;4.90;;;10.50;95.70;;;;;;4973530;28;20394;-71
2022/04/16 04:22:47;;;;;;;5.20;4.70;;;10.50;95.70;;;;;;4967248;28;20034;-71
2022/04/16 04:25:13;;;;;;;6.10;5.47;;;10.50;95.50;;;;;;4978287;28;20508;-71
2022/04/16 04:27:38;;;;;;;4.95;4.35;;;10.50;95.70;;;;;;4963411;28;20043;-73
2022/04/16 04:30:05;;;;;;;5.88;5.28;;;10.60;95.40;;;;;;4965372;28;20075;-71
2022/04/16 04:32:31;;;;;;;8.88;7.63;;;10.50;95.40;;;;;;4970325;28;20138;-71
2022/04/16 04:34:57;;;;;;;6.57;5.95;;;10.60;95.40;;;;;;4966497;28;20042;-71
2022/04/16 04:37:23;;;;;;;8.82;8.00;;;10.60;95.30;;;;;;4963735;28;20924;-71
2022/04/16 04:39:49;;;;;;;5.93;5.35;;;10.50;95.40;;;;;;4972518;28;20064;-71
2022/04/16 04:42:24;;;;;;;6.80;5.35;;;10.50;95.50;;;;;;4971099;28;20039;-71
2022/04/16 04:44:50;;;;;;;5.40;4.90;;;10.50;95.60;;;;;;4969430;28;20046;-71
2022/04/16 04:47:16;;;;;;;5.65;4.72;;;10.50;95.50;;;;;;4973498;28;20053;-71
2022/04/16 04:49:42;;;;;;;5.38;4.80;;;10.60;95.70;;;;;;4971625;28;20038;-70
2022/04/16 04:52:07;;;;;;;6.50;5.35;;;10.60;95.70;;;;;;4961518;28;20145;-70
2022/04/16 04:54:33;;;;;;;6.35;4.97;;;10.70;95.60;;;;;;4967810;28;20062;-70
2022/04/16 04:56:59;;;;;;;5.50;5.00;;;10.70;95.60;;;;;;4972058;28;20058;-70
2022/04/16 04:59:25;;;;;;;5.43;4.93;;;10.70;95.70;;;;;;4974137;28;20050;-70
2022/04/16 05:01:50;;;;;;;6.93;5.55;;;10.70;95.60;;;;;;4970454;28;20878;-70
2022/04/16 05:04:16;;;;;;;5.35;4.65;;;10.70;95.40;;;;;;4989696;28;20069;-71
2022/04/16 05:06:42;;;;;;;5.15;4.65;;;10.80;95.50;;;;;;4983644;28;20117;-71
2022/04/16 05:09:07;;;;;;;5.18;4.68;;;10.80;95.40;;;;;;4985568;28;20050;-68
2022/04/16 05:11:33;;;;;;;5.22;4.45;;;10.80;95.60;;;;;;4985895;28;20042;-68
2022/04/16 05:13:59;;;;;;;4.60;4.20;;;10.80;95.70;;;;;;4989198;28;20599;-68
2022/04/16 05:16:24;;;;;;;5.57;4.30;;;10.80;95.40;;;;;;4984640;28;20430;-69
2022/04/16 05:18:50;;;;;;;4.88;4.38;;;10.90;95.30;;;;;;4983397;28;20517;-69
2022/04/16 05:21:16;;;;;;;5.25;4.75;;;11.00;94.70;;;;;;4994166;28;20517;-68
2022/04/16 05:23:41;;;;;;;4.82;4.32;;;11.00;94.90;;;;;;4986675;28;20046;-69
2022/04/16 05:26:08;;;;;;;5.80;5.20;;;11.00;94.80;;;;;;4988514;28;20122;-69
2022/04/16 05:28:34;;;;;;;5.50;4.75;;;11.10;94.60;;;;;;4986302;28;20048;-69
2022/04/16 05:31:02;;;;;;;4.57;4.18;;;11.10;94.10;;;;;;4988416;28;20042;-69
2022/04/16 05:36:12;;;;;;;10.13;4.60;;;11.10;94.30;;;;;;4992244;28;20045;-70
2022/04/16 05:38:38;;;;;;;5.05;4.05;;;11.20;94.20;;;;;;4991899;28;20920;-66
2022/04/16 05:41:03;;;;;;;7.22;4.60;;;11.30;94.10;;;;;;4994730;28;20044;-71
2022/04/16 05:43:29;;;;;;;4.85;4.45;;;11.40;93.90;;;;;;4988625;28;20081;-70
2022/04/16 05:45:55;;;;;;;6.55;5.95;;;11.40;93.20;;;;;;4986272;28;20154;-70
2022/04/16 05:48:20;;;;;;;10.23;9.18;;;11.40;93.40;;;;;;4991586;28;20085;-70
2022/04/16 05:50:46;;;;;;;5.93;5.32;;;11.40;93.30;;;;;;4983443;28;20534;-74
2022/04/16 05:53:14;;;;;;;6.22;5.40;;;11.50;92.90;;;;;;4991394;28;20030;-73
2022/04/16 05:55:43;;;;;;;6.15;4.05;;;11.50;93.20;;;;;;4986057;28;20046;-73
2022/04/16 05:58:09;;;;;;;5.72;5.22;;;11.60;93.00;;;;;;4992018;28;20030;-74
2022/04/16 06:00:37;;;;;;;5.28;4.75;;;11.60;93.10;;;;;;4984913;28;20050;-80
2022/04/16 06:03:04;;;;;;;6.55;5.90;;;11.60;92.70;;;;;;4970610;28;20064;-72
2022/04/16 06:05:31;;;;;;;6.25;5.65;;;11.50;92.70;;;;;;5000483;28;20606;-73
2022/04/16 06:07:57;;;;;;;5.45;4.95;;;11.60;92.90;;;;;;4996218;28;20034;-67
2022/04/16 06:10:23;;;;;;;4.47;4.07;;;11.70;92.70;;;;;;4985223;28;20038;-67
2022/04/16 06:12:49;;;;;;;4.15;3.67;;;11.70;93.10;;;;;;4967782;28;20534;-67
2022/04/16 06:15:14;;;;;;;4.07;3.67;;;11.90;92.70;;;;;;4998964;28;20124;-71
2022/04/16 06:17:40;;;;;;;4.07;3.40;;;12.00;91.70;;;;;;4994228;28;20046;-70
2022/04/16 06:20:07;;;;;;;4.07;3.08;;;11.90;91.80;;;;;;4986594;28;20141;-70
2022/04/16 06:22:33;;;;;;;4.32;3.92;;;11.80;91.40;;;;;;4994668;28;20045;-69
2022/04/16 06:24:59;;;;;;;4.20;3.78;;;11.80;91.80;;;;;;4993701;28;20030;-70
2022/04/16 06:27:24;;;;;;;4.18;3.78;;;11.80;91.90;;;;;;4989270;28;20491;-70
2022/04/16 06:29:50;;;;;;;3.53;3.22;;;11.90;91.60;;;;;;4991899;28;20418;-70
2022/04/16 06:32:16;;;;;;;4.60;3.40;;;11.90;91.50;;;;;;4986900;28;20037;-70
2022/04/16 06:34:41;;;;;;;3.53;3.22;;;12.00;91.70;;;;;;4998054;28;20058;-70
2022/04/16 06:37:07;;;;;;;4.30;3.65;;;12.10;91.40;;;;;;4986587;28;20045;-70
2022/04/16 06:39:33;;;;;;;4.18;3.50;;;12.10;91.30;;;;;;4992106;28;20050;-70
2022/04/16 06:41:59;;;;;;;3.78;3.47;;;12.10;91.30;;;;;;4995198;28;20034;-70
2022/04/16 06:44:24;;;;;;;3.72;2.80;;;12.20;91.30;;;;;;4992838;28;20050;-70
2022/04/16 06:46:50;;;;;;;4.15;3.75;;;12.30;91.40;;;;;;4990841;28;20572;-70
2022/04/16 06:49:16;;;;;;;3.97;3.58;;;12.30;91.30;;;;;;4978963;28;20041;-70
2022/04/16 06:51:42;;;;;;;3.17;2.88;;;12.30;91.00;;;;;;4991830;28;20069;-70
2022/04/16 06:54:08;;;;;;;6.60;3.28;;;12.30;90.40;;;;;;4989264;28;20989;-70
2022/04/16 06:56:34;;;;;;;3.25;2.90;;;12.30;90.20;;;;;;4986061;28;20216;-68
2022/04/16 06:59:00;;;;;;;3.00;2.75;;;12.20;90.40;;;;;;4990087;28;20660;-68
2022/04/16 07:01:26;;;;;;;12.00;8.70;;;12.30;91.00;;;;;;4984570;28;20034;-69
2022/04/16 07:03:52;;;;;;;3.50;2.95;;;12.50;90.90;;;;;;4994082;28;20120;-71
2022/04/16 07:06:19;;;;;;;12.73;11.35;;;12.70;90.10;;;;;;4989642;28;20029;-71
2022/04/16 07:08:44;;;;;;;13.75;9.05;;;12.70;90.20;;;;;;4992231;28;20146;-70
2022/04/16 07:11:10;;;;;;;9.52;8.40;;;12.80;89.00;;;;;;4990664;28;20542;-70
2022/04/16 07:13:35;;;;;;;4.07;3.67;;;12.90;89.60;;;;;;4989998;28;20117;-70
2022/04/16 07:16:01;;;;;;;3.38;3.08;;;12.90;90.00;;;;;;4987215;28;20054;-70
2022/04/16 07:18:27;;;;;;;3.53;2.47;;;12.90;87.40;;;;;;4988364;28;20038;-70
2022/04/16 07:20:52;;;;;;;9.70;8.73;;;12.80;88.80;;;;;;4988959;28;20406;-69
2022/04/16 07:23:18;;;;;;;4.38;3.92;;;12.80;89.80;;;;;;4994874;28;20533;-69
2022/04/16 07:25:43;;;;;;;3.15;2.88;;;12.90;90.20;;;;;;4981995;28;20046;-69
2022/04/16 07:28:11;;;;;;;4.05;3.65;;;13.00;87.90;;;;;;4982472;28;20545;-69
2022/04/16 07:30:37;;;;;;;6.13;5.10;;;13.00;87.30;;;;;;4981205;28;20038;-68
2022/04/16 07:33:02;;;;;;;6.05;5.55;;;13.10;87.50;;;;;;4996716;28;20062;-69
2022/04/16 07:35:29;;;;;;;4.18;2.70;;;13.10;86.50;;;;;;4987131;28;20121;-69
2022/04/16 07:37:58;;;;;;;3.83;3.53;;;13.20;87.00;;;;;;4987161;28;20043;-69
2022/04/16 07:40:25;;;;;;;3.45;2.35;;;13.40;86.90;;;;;;4988350;28;20050;-69
2022/04/16 07:42:51;;;;;;;2.00;1.80;;;13.40;84.50;;;;;;4971884;28;20072;-69
2022/04/16 07:45:16;;;;;;;2.15;1.95;;;13.30;83.10;;;;;;4985829;28;20470;-66
2022/04/16 07:47:42;;;;;;;8.60;2.58;;;13.30;84.20;;;;;;4994819;28;20593;-66
2022/04/16 07:50:09;;;;;;;2.90;2.05;;;13.30;84.70;;;;;;4984795;28;20042;-66
2022/04/16 07:52:34;;;;;;;2.40;2.00;;;13.40;83.00;;;;;;4993257;28;20038;-66
2022/04/16 07:55:00;;;;;;;2.90;2.33;;;13.40;83.80;;;;;;4997346;28;20426;-66
2022/04/16 07:57:26;;;;;;;1.98;1.88;;;13.50;82.30;;;;;;4990754;28;20124;-66
2022/04/16 07:59:53;;;;;;;2.35;2.15;;;13.60;81.40;;;;;;4979659;28;20046;-67
2022/04/16 08:02:20;;;;;;;2.95;1.90;;;13.60;79.90;;;;;;4986524;28;20030;-66
2022/04/16 08:04:46;;;;;;;1.98;1.88;;;13.60;81.50;;;;;;4971495;28;20050;-66
2022/04/16 08:07:11;;;;;;;2.25;1.60;;;13.50;80.10;;;;;;4986142;28;20067;-66
2022/04/16 08:09:37;;;;;;;2.20;1.75;;;13.50;80.90;;;;;;4976056;28;20034;-66
2022/04/16 08:12:03;;;;;;;1.83;1.70;;;13.50;80.70;;;;;;4980850;28;20096;-66
2022/04/16 08:14:29;;;;;;;1.88;1.77;;;13.50;80.80;;;;;;4993257;28;20074;-66
2022/04/16 08:16:56;;;;;;;2.10;1.90;;;13.70;81.90;;;;;;4988707;28;20113;-66
2022/04/16 08:19:22;;;;;;;1.63;1.52;;;13.70;82.60;;;;;;4995377;28;20570;-66
2022/04/16 08:21:48;;;;;;;2.35;1.65;;;13.70;82.40;;;;;;4968080;28;20042;-66
2022/04/16 08:24:22;;;;;;;1.67;1.58;;;13.50;80.70;;;;;;4984040;28;20521;-68
2022/04/16 08:26:48;;;;;;;1.48;1.30;;;13.40;83.10;;;;;;4991629;28;20034;-68
2022/04/16 08:29:14;;;;;;;2.45;1.38;;;13.30;81.70;;;;;;4992736;28;20038;-67
2022/04/16 08:31:39;;;;;;;1.20;1.15;;;13.30;82.60;;;;;;4991083;28;20032;-66
2022/04/16 08:34:05;;;;;;;2.00;1.90;;;13.40;83.50;;;;;;4989808;28;20041;-67
2022/04/16 08:36:31;;;;;;;5.18;1.70;;;13.40;81.20;;;;;;4986963;28;20081;-66
2022/04/16 08:38:57;;;;;;;2.38;2.00;;;13.40;84.10;;;;;;4985820;28;20180;-67
2022/04/16 08:41:25;;;;;;;2.28;1.88;;;13.60;82.00;;;;;;4988021;28;20034;-66
2022/04/16 08:43:52;;;;;;;1.70;1.60;;;13.70;79.30;;;;;;4976666;28;20042;-66
2022/04/16 08:46:18;;;;;;;1.70;1.60;;;13.90;79.50;;;;;;4987061;28;20041;-66
2022/04/16 08:48:44;;;;;;;1.60;1.50;;;14.20;79.80;;;;;;4988259;28;20042;-67
2022/04/16 08:51:11;;;;;;;1.63;1.52;;;14.40;78.80;;;;;;4987066;28;20054;-67
2022/04/16 08:53:37;;;;;;;2.33;1.33;;;14.70;77.90;;;;;;4989559;28;20128;-67
2022/04/16 08:56:03;;;;;;;1.40;1.30;;;14.90;77.20;;;;;;4987036;28;20088;-67
2022/04/16 08:58:30;;;;;;;2.38;2.20;;;15.10;77.10;;;;;;4988111;28;20078;-67
2022/04/16 09:00:56;;;;;;;1.67;1.58;;;15.30;75.10;;;;;;4999015;28;20048;-67
2022/04/16 09:03:30;;;;;;;1.40;1.30;;;15.40;70.40;;;;;;4992455;28;20037;-67
2022/04/16 09:05:56;;;;;;;1.55;1.45;;;15.40;71.20;;;;;;4995905;28;20113;-67
2022/04/16 09:08:31;;;;;;;5.15;1.90;;;15.50;70.40;;;;;;4990044;28;20117;-66
2022/04/16 09:11:08;;;;;;;1.75;1.10;;;15.70;70.20;;;;;;4991500;28;20065;-67
2022/04/16 09:13:34;;;;;;;3.75;1.73;;;15.90;70.50;;;;;;4985884;28;20042;-66
2022/04/16 09:16:05;;;;;;;1.10;1.10;;;16.00;71.00;;;;;;4984829;28;20495;-67
2022/04/16 09:18:43;;;;;;;2.72;1.25;;;16.20;71.30;;;;;;4972183;28;20029;-67
2022/04/16 09:21:15;;;;;;;1.30;1.20;;;16.30;67.90;;;;;;4989492;28;20042;-67
2022/04/16 09:23:48;;;;;;;;;;;16.10;70.30;;;;;;4982397;28;20061;-67
2022/04/16 09:26:28;;;;;;;;;;;16.00;67.10;;;;;;4982097;28;20492;-67
2022/04/16 09:28:54;;;;;;;1.05;0.90;;;15.80;67.60;;;;;;4984138;28;19914;-67
2022/04/16 09:31:27;;;;;;;1.10;1.00;;;15.80;68.90;;;;;;4984880;28;20042;-67
2022/04/16 09:33:53;;;;;;;1.58;1.23;;;15.70;68.90;;;;;;4988128;28;20081;-67
2022/04/16 09:36:28;;;;;;;4.35;1.90;;;15.70;71.40;;;;;;4980201;28;20581;-67
2022/04/16 09:39:02;;;;;;;1.35;1.25;;;15.60;69.30;;;;;;4976290;28;20050;-67
2022/04/16 09:41:34;;;;;;;2.80;1.65;;;15.40;72.70;;;;;;4988089;28;20045;-67
2022/04/16 09:44:01;;;;;;;1.27;1.17;;;15.30;70.70;;;;;;4989786;28;20128;-67
2022/04/16 09:46:28;;;;;;;1.30;1.20;;;15.20;69.80;;;;;;4987406;28;20109;-67
2022/04/16 09:49:02;;;;;;;1.17;1.02;;;15.20;70.50;;;;;;4987015;28;20495;-67
2022/04/16 09:51:32;;;;;;;0.80;0.80;;;15.20;70.70;;;;;;4987169;28;20038;-63
2022/04/16 09:53:58;;;;;;;1.20;1.10;;;15.10;69.40;;;;;;4988468;28;20049;-63
2022/04/16 09:56:27;;;;;;;1.20;1.10;;;15.10;70.60;;;;;;4996992;28;20046;-63
2022/04/16 09:58:55;;;;;;;3.13;1.40;;;15.10;73.40;;;;;;4986394;28;20022;-63
2022/04/16 10:01:24;;;;;;;2.20;2.10;;;15.20;73.00;;;;;;4985005;28;20123;-64
2022/04/16 10:03:54;;;;;;;1.13;1.00;;;15.30;71.30;;;;;;4983649;28;20117;-64
2022/04/16 10:06:20;;;;;;;1.20;1.10;;;15.30;70.40;;;;;;4982307;28;20052;-64
2022/04/16 10:08:49;;;;;;;1.40;1.30;;;15.30;70.50;;;;;;4980992;28;20038;-63
2022/04/16 10:11:32;;;;;;;0.85;0.85;;;15.30;71.80;;;;;;4981088;28;20046;-63
2022/04/16 10:14:12;;;;;;;1.85;1.75;;;15.30;72.60;;;;;;4989123;28;20124;-63
2022/04/16 10:16:55;;;;;;;0.77;0.77;;;15.30;71.20;;;;;;4983793;28;20137;-63
2022/04/16 10:19:20;;;;;;;1.23;0.70;;;15.30;70.90;;;;;;4988228;28;20438;-63
2022/04/16 10:21:46;;;;;;;0.93;0.90;;;15.50;73.00;;;;;;4986258;28;20042;-63
2022/04/16 10:24:12;;;;;;;1.10;0.90;;;15.70;69.50;;;;;;4987076;28;20038;-63
2022/04/16 10:26:39;;;;;;;0.70;0.70;;;15.90;70.10;;;;;;4992245;28;20598;-67
2022/04/16 10:29:05;;;;;;;0.80;0.80;;;15.90;69.50;;;;;;4990180;28;20179;-67
2022/04/16 10:31:33;;;;;;;1.27;0.90;;;15.90;68.60;;;;;;4993018;28;20554;-67
2022/04/16 10:34:07;;;;;;;2.00;0.90;;;15.80;67.20;;;;;;4987739;28;20069;-68
2022/04/16 10:36:39;;;;;;;0.60;0.60;;;15.70;66.40;;;;;;4985854;28;20065;-68
2022/04/16 10:39:15;;;;;;;;;;;15.60;67.20;;;;;;4989078;28;20031;-68
2022/04/16 10:41:53;;;;;;;0.80;0.68;;;15.60;66.90;;;;;;4982312;28;19953;-67
2022/04/16 10:44:19;;;;;;;1.10;1.00;;;15.60;65.50;;;;;;4999067;28;20044;-68
2022/04/16 10:46:47;;;;;;;0.95;0.88;;;15.60;66.80;;;;;;4989361;28;20038;-68
2022/04/16 10:49:14;;;;;;;0.60;0.60;;;15.60;68.10;;;;;;4994775;28;20033;-68
2022/04/16 10:51:40;;;;;;;3.38;2.45;;;15.40;68.30;;;;;;4984790;28;20068;-68
2022/04/16 10:54:09;;;;;;;1.20;1.10;;;15.30;69.80;;;;;;4998495;28;20592;-68
2022/04/16 10:56:39;;;;;;;5.88;1.58;;;15.20;70.90;;;;;;4995969;28;20093;-68
2022/04/16 10:59:06;;;;;;;3.33;2.08;;;15.20;70.90;;;;;;4973679;28;20038;-68
2022/04/16 11:01:32;;;;;;;0.70;0.70;;;15.30;70.30;;;;;;4994290;28;20041;-68
2022/04/16 11:03:57;;;;;;;0.60;0.60;;;15.30;70.70;;;;;;4983808;28;20057;-70
2022/04/16 11:06:34;;;;;;;0.65;0.60;;;15.30;70.00;;;;;;4989151;28;20110;-70
2022/04/16 11:08:59;;;;;;;3.30;1.98;;;15.30;70.30;;;;;;4985417;28;20466;-69
2022/04/16 11:11:25;;;;;;;5.63;3.70;;;15.30;73.90;;;;;;4990629;28;20038;-70
2022/04/16 11:13:51;;;;;;;1.67;0.70;;;15.50;72.40;;;;;;4996485;28;20065;-68
2022/04/16 11:16:21;;;;;;;0.40;0.40;;;15.60;69.20;;;;;;4985442;28;20065;-67
2022/04/16 11:18:49;;;;;;;2.28;1.42;;;15.60;67.70;;;;;;4989827;28;20038;-68
2022/04/16 11:21:24;;;;;;;1.80;1.50;;;15.80;70.90;;;;;;4973892;28;20041;-68
2022/04/16 11:23:52;;;;;;;20.15;11.32;;;15.70;66.80;;;;;;4990082;28;20138;-67
2022/04/16 11:34:45;;;;;;;1.70;1.60;;;15.60;68.00;;;;;;4989324;28;20069;-68
2022/04/16 11:37:13;;;;;;;1.40;1.30;;;15.60;67.70;;;;;;4985544;28;20085;-68
2022/04/16 11:39:39;;;;;;;1.15;1.05;;;15.60;65.30;;;;;;4992610;28;20042;-68
2022/04/16 11:42:07;;;;;;;0.50;0.50;;;15.70;63.90;;;;;;4990263;28;20729;-68
2022/04/16 11:44:40;;;;;;;0.40;0.40;;;15.60;64.20;;;;;;4986337;28;20046;-68
2022/04/16 11:47:11;;;;;;;0.50;0.50;;;15.70;62.90;;;;;;4988216;28;20113;-68
2022/04/16 11:49:39;;;;;;;0.70;0.50;;;15.70;62.80;;;;;;4979693;28;20073;-68
2022/04/16 11:52:06;;;;;;;0.32;0.32;;;15.70;64.50;;;;;;4976794;28;20050;-68
2022/04/16 11:54:32;;;;;;;0.43;0.30;;;15.40;66.20;;;;;;4986299;28;20491;-68
2022/04/16 11:56:58;;;;;;;0.40;0.40;;;15.30;68.30;;;;;;4974643;28;20038;-68
2022/04/16 11:59:25;;;;;;;0.50;0.40;;;15.20;69.20;;;;;;4996287;28;20526;-69
2022/04/16 12:02:10;;;;;;;2.55;0.47;;;15.10;68.30;;;;;;4987601;28;20053;-68
2022/04/16 12:04:41;;;;;;;0.20;0.20;;;15.10;68.80;;;;;;4997879;28;20619;-68
2022/04/16 12:07:14;;;;;;;0.43;0.40;;;15.20;69.50;;;;;;4989471;28;20061;-68
2022/04/16 12:09:47;;;;;;;0.90;0.40;;;15.30;67.80;;;;;;4992110;28;20030;-68
2022/04/16 12:12:23;;;;;;;5.10;0.32;;;15.20;67.70;;;;;;4992499;28;20058;-68
2022/04/16 12:14:52;;;;;;;0.73;0.50;;;15.20;70.30;;;;;;4981114;28;20476;-67
2022/04/16 12:17:26;;;;;;;0.77;0.40;;;15.10;69.30;;;;;;4986131;28;22459;-67
2022/04/16 12:20:05;;;;;;;0.52;0.30;;;14.90;68.30;;;;;;4988215;28;20120;-68
2022/04/16 12:22:32;;;;;;;1.85;0.30;;;14.80;70.20;;;;;;4979930;28;20136;-68
2022/04/16 12:25:09;;;;;;;0.43;0.43;;;14.80;69.00;;;;;;4980005;28;20045;-68
2022/04/16 12:27:34;;;;;;;0.98;0.30;;;14.70;69.80;;;;;;4975088;28;20134;-68
2022/04/16 12:30:02;;;;;;;0.20;0.20;;;14.70;67.90;;;;;;4989814;28;20054;-68
2022/04/16 12:32:28;;;;;;;0.63;0.10;;;14.80;70.10;;;;;;4976420;28;20094;-68
2022/04/16 12:34:54;;;;;;;0.20;0.20;;;14.80;70.20;;;;;;4988727;28;20042;-68
2022/04/16 12:37:20;;;;;;;0.40;0.30;;;14.90;68.00;;;;;;4981664;28;20045;-69
2022/04/16 12:39:46;;;;;;;0.47;0.20;;;14.90;68.30;;;;;;4985697;28;20043;-69
2022/04/16 12:42:12;;;;;;;0.32;0.20;;;14.80;69.00;;;;;;4973124;28;20112;-68
2022/04/16 12:44:38;;;;;;;1.52;0.20;;;14.70;69.20;;;;;;4981520;28;20062;-68
2022/04/16 12:47:03;;;;;;;0.50;0.50;;;14.70;68.80;;;;;;4982361;28;20101;-68
2022/04/16 12:49:29;;;;;;;2.17;1.50;;;14.80;71.50;;;;;;4983947;28;20414;-68
2022/04/16 12:51:54;;;;;;;2.58;1.45;;;14.90;74.70;;;;;;4996048;28;20056;-63
2022/04/16 12:54:20;;;;;;;1.70;1.30;;;14.80;75.80;;;;;;4988528;28;20058;-63
2022/04/16 12:56:47;;;;;;;3.40;1.25;;;14.70;77.60;;;;;;4980467;28;20049;-62
2022/04/16 12:59:13;;;;;;;4.70;1.05;;;14.70;75.90;;;;;;4984740;28;20058;-63
2022/04/16 13:01:39;;;;;;;1.88;1.10;;;14.80;74.80;;;;;;4989071;28;20042;-63
2022/04/16 13:04:05;;;;;;;1.80;1.02;;;14.70;75.90;;;;;;4972875;28;22027;-63
2022/04/16 13:06:30;;;;;;;11.10;1.13;;;14.80;75.90;;;;;;4995376;28;20066;-63
2022/04/16 13:09:00;;;;;;;0.85;0.80;;;14.80;76.50;;;;;;4990747;28;20158;-63
2022/04/16 13:11:26;;;;;;;2.15;0.90;;;14.80;76.80;;;;;;4978841;28;20038;-63